KCDW/CDW METAR and TAF weather

Enter ICAO airport designator
Station Type Date Time Source
KCDW METAR 2019/04/18 09:53 UTC NOAA

KCDW 180953Z AUTO 15007KT 10SM OVC044 11/04 A3015 RMK AO2 RAB20E36 SLP216 P0000 T01110039


Station Type Date Time Source
KCDW Decoded METAR 2019/04/18 09:53 UTC NOAA

CALDWELL ESSEX COUNTY AIRPORT , NJ, United States (KCDW) 40-53N 074-17W 64M
Apr 18, 2019 - 05:53 AM EDT / 2019.04.18 0953 UTC
Wind: from the SSE (150 degrees) at 8 MPH (7 KT):0
Visibility: 10 mile(s):0
Sky conditions: overcast
Precipitation last hour: A trace
Temperature: 52.0 F (11.1 C)
Dew Point: 39.0 F (3.9 C)
Relative Humidity: 61%
Pressure (altimeter): 30.15 in. Hg (1020 hPa)
ob: KCDW 180953Z AUTO 15007KT 10SM OVC044 11/04 A3015 RMK AO2 RAB20E36 SLP216 P0000 T01110039
cycle: 10

Station Type Date Time Source
KCDW TAF UTC NOAA

Error!

Example: see airport list